Estación Meteorológica Peña el Pijo (Robertgarden) [ 12/17/17 01:26:57 CET ]

Fecha Hora Presion(HPa) Temp (°C) Humedad % Rocio (°C) Viento ( m/s) Direccion Lluvia 1Hora(mm) Lluvia 24H(mm) LLuvia Total(mm)
2017-Oct-22 01:01:43 1016.000 9.8 82 6.8         1466.45
2017-Oct-22 02:01:55 1016.000 9.0 83 6.2         1466.45
2017-Oct-22 03:04:12 1015.800 9.6 85 7.2         1466.45
2017-Oct-22 04:01:44 1015.700 9.4 85 7.0         1466.45
2017-Oct-22 05:01:45 1015.500 8.4 85 6.0         1466.45
2017-Oct-22 06:01:41 1015.300 8.1 86 5.9         1466.45
2017-Oct-22 07:01:39 1015.500 7.4 87 5.4         1466.45
2017-Oct-22 08:01:46 1015.900 7.3 87 5.3         1466.45
2017-Oct-22 09:01:39 1016.200 8.4 88 6.5         1466.45
2017-Oct-22 10:01:37 1016.400 11.6 90 10.0         1466.45
2017-Oct-22 11:01:44 1016.700 17.6 83 14.7         1466.45
2017-Oct-22 12:01:44 1016.800 21.1 58 12.5         1466.45
2017-Oct-22 13:02:04 1016.200 22.1 51 11.5         1466.45
2017-Oct-22 14:01:48 1015.700 23.4 46 11.1 0.8 S     1466.45
2017-Oct-22 15:01:44 1015.200 25.2 40 10.7         1466.45
2017-Oct-22 16:01:50 1014.300 26.1 37 10.2         1466.45
2017-Oct-22 17:01:53 1014.200 24.6 37 8.9 0.4 S     1466.45
2017-Oct-22 18:01:58 1014.200 22.9 40 8.6         1466.45
2017-Oct-22 19:01:54 1014.400 18.9 48 7.6         1466.45
2017-Oct-22 20:01:54 1015.200 16.1 57 7.6         1466.45
2017-Oct-22 21:01:43 1015.700 12.7 67 6.7         1466.45
2017-Oct-22 22:01:48 1016.400 11.1 73 6.5         1466.45
2017-Oct-22 23:01:49 1016.800 9.5 77 5.6         1466.45

Temperatura Máxima:26°    Temperatura Mínima:
Presión Máxima:1016.800 Hpa    Presión Mínima:1014.200 Hpa


Volver